Airfield :
LOGIN :

Register | Disclaimer

   EN    FR    IT 

 










Legend :    VFR   Marginal VFR   IFR   Intensive IFR   Very Intensive IFR
Visi :
Ceiling :
>= 8 km
>= 3000ft
5 to 8 km
1000 to 3000 ft
1500m to 5 km
500 to 1000 ft
800 to 1500m
200 to 500 ft
< 800m
< 200 ft
Symbols :   Thunderstorms  Fog  Heavy snow  Heavy precipitations  Wind > 20 kt
SIGMETs :     Misc.  Thunderstorms  Icing  Turbulence  Mountain Waves  Volcanic Ashes







- Airport Elevation : 1363 ft


ETIC - Grafenwohr Army Air Field

CURRENT METAR :
  • 241725Z AUTO 31007KT 9999 FEW004 BKN046 BKN060 OVC100 13/10 A3014 RMK AO2 RAE22DZB22E24RAB24E25 SLP207

EXPIRED METARs :
  • 241717Z AUTO 30006KT 5000 -RA SCT004 SCT013 OVC045 13/10 A3015 RMK AO2 SLP211
  • 241716Z AUTO 30006KT 4000 -RA SCT004 SCT013 BKN042 OVC050 13/10 A3015 RMK AO2 VIS 3200V6000 SLP211
  • 241710Z AUTO 31007KT 4000 +RA SCT004 SCT013 BKN042 OVC050 14/09 A3015 RMK AO2 VIS 4000V9000 SLP209
  • 241658Z AUTO 30013G20KT 9000 -RA FEW005 SCT043 BKN050 OVC070 16/09 A3014 RMK AO2 RAB51 SLP204 P0000
  • 241558Z AUTO 28011G20KT 9999 SCT043 BKN050 OVC100 17/08 A3013 RMK AO2 SLP198
  • 241458Z AUTO 27010KT 9999 BKN043 OVC065 17/08 A3013 RMK AO2 SLP198 57007

TAF TAF ETIC
Valid from the 24 at 14:00 until the 25 at 20:00 UTC


241416Z 2414/2520 30010G15KT 9999 BKN050 QNH3012INS
BECMG 2419/2420 30009KT 9999 BKN020 QNH3011INS
BECMG 2506/2507 01006KT 9999 SCT035 QNH3011INS TX20/2414Z TN08/2503Z
No reported NOTAMs for that airfield.



MET'MAP, your aeronautical weather chart ! - Copyright ORBIFLY December 2007 - Disclaimer

ORBIFLY MET'MAP TEAM :

Programming & Development : Alexandra Zaïnal
Concept & Development : Baudouin d'Aumeries
Co-Development & Prog : Marc-Olivier Méhu
Technical & hardware support : Manuel Goepfert

Contact : metmap@orbifly.com




SOURCES & CREDITS :

   NOAA